OTBD/DOH METAR and TAF weather

Enter ICAO airport designator
Station Type Date Time Source
OTBD METAR 2021/01/22 05:30 UTC NOAA

OTBD 220530Z AUTO 30011KT 270V340 CAVOK 16/08 Q1023 NOSIG


Station Type Date Time Source
OTBD Decoded METAR 2021/01/22 05:30 UTC NOAA

Doha International Airport, Qatar (OTBD) 25-15N 051-34E 10M
Jan 22, 2021 - 12:30 AM EST / 2021.01.22 0530 UTC
Wind: from the WNW (300 degrees) at 13 MPH (11 KT) (direction variable):0
Visibility: greater than 7 mile(s):0
Temperature: 60 F (16 C)
Dew Point: 46 F (8 C)
Relative Humidity: 58%
Pressure (altimeter): 30.21 in. Hg (1023 hPa)
ob: OTBD 220530Z AUTO 30011KT 270V340 CAVOK 16/08 Q1023 NOSIG
cycle: 5

Station Type Date Time Source
OTBD TAF 2021/01/22 06:09 UTC NOAA

TAF OTBD 220504Z 2206/2312 31020KT 8000 NSC
TEMPO 2206/2214 30022G32KT 4000 BLDU
BECMG 2216/2218 30011KT

Example: see airport list